TS38 weather

Helitrans Heliport
Iowa Colony/Manvel, Texas, United States

Public forecast

Using degrees Fahrenheit for public forecast. Weather courtesy of forecast.io.

Closest aviation weather report (METAR) to Helitrans Heliport

Closest report is Houston Southwest Airport, 4.3 nm (7.9 km) WNW. Retrieved 2020/08/03 12:35 UTC (0 seconds ago):

KAXH 031235Z AUTO 00000KT 4SM BR CLR 23/23 A3001 RMK AO2 P0001 T02320232

Closest aviation forecast (TAF) to Helitrans Heliport

Closest forecast is William P Hobby Airport, 12.0 nm (22.2 km) NNE. Retrieved 2020/08/03 12:27 UTC (0 seconds ago):

TAF KHOU 031124Z 0312/0412 VRB04KT P6SM FEW250 FM031500 27005KT P6SM FEW050 SCT250 FM032100 17005KT P6SM VCTS SCT050CB SCT250 FM040000 19004KT P6SM SCT050 BKN120